sensor_id;sensor_type;location;lat;lon;timestamp;pressure;altitude;pressure_sealevel;temperature;humidity
65983;BME280;52740;40.620;-8.640;2022-08-18T00:00:10;101465.50;;;15.91;100.00
65983;BME280;52740;40.620;-8.640;2022-08-18T00:02:20;101467.91;;;15.96;100.00
65983;BME280;52740;40.620;-8.640;2022-08-18T00:04:21;101473.78;;;15.88;100.00
65983;BME280;52740;40.620;-8.640;2022-08-18T00:06:22;101477.72;;;15.87;100.00
65983;BME280;52740;40.620;-8.640;2022-08-18T00:08:23;101478.91;;;15.89;100.00
65983;BME280;52740;40.620;-8.640;2022-08-18T00:10:24;101473.38;;;15.89;100.00
65983;BME280;52740;40.620;-8.640;2022-08-18T00:12:37;101466.66;;;15.87;100.00
65983;BME280;52740;40.620;-8.640;2022-08-18T00:14:38;101470.19;;;15.84;100.00
65983;BME280;52740;40.620;-8.640;2022-08-18T00:16:39;101472.88;;;15.76;100.00
65983;BME280;52740;40.620;-8.640;2022-08-18T00:18:40;101468.59;;;15.83;100.00
65983;BME280;52740;40.620;-8.640;2022-08-18T00:20:41;101473.34;;;15.82;100.00
65983;BME280;52740;40.620;-8.640;2022-08-18T00:22:41;101475.72;;;15.84;100.00
65983;BME280;52740;40.620;-8.640;2022-08-18T00:24:44;101478.47;;;15.84;100.00
65983;BME280;52740;40.620;-8.640;2022-08-18T00:26:45;101461.94;;;15.87;100.00
65983;BME280;52740;40.620;-8.640;2022-08-18T00:28:45;101465.44;;;15.84;100.00
65983;BME280;52740;40.620;-8.640;2022-08-18T00:30:46;101460.69;;;15.81;100.00
65983;BME280;52740;40.620;-8.640;2022-08-18T00:32:53;101467.78;;;15.75;100.00
65983;BME280;52740;40.620;-8.640;2022-08-18T00:34:54;101466.50;;;15.65;100.00
65983;BME280;52740;40.620;-8.640;2022-08-18T00:36:55;101463.72;;;15.62;100.00
65983;BME280;52740;40.620;-8.640;2022-08-18T00:38:55;101462.94;;;15.61;100.00
65983;BME280;52740;40.620;-8.640;2022-08-18T00:40:56;101462.88;;;15.58;100.00
65983;BME280;52740;40.620;-8.640;2022-08-18T00:43:01;101470.69;;;15.49;100.00
65983;BME280;52740;40.620;-8.640;2022-08-18T00:45:04;101471.06;;;15.47;100.00
65983;BME280;52740;40.620;-8.640;2022-08-18T00:47:05;101471.84;;;15.44;100.00
65983;BME280;52740;40.620;-8.640;2022-08-18T00:49:06;101473.03;;;15.47;100.00
65983;BME280;52740;40.620;-8.640;2022-08-18T00:51:12;101464.72;;;15.43;100.00
65983;BME280;52740;40.620;-8.640;2022-08-18T00:53:37;101463.47;;;15.37;100.00
65983;BME280;52740;40.620;-8.640;2022-08-18T00:55:41;101475.25;;;15.30;100.00
65983;BME280;52740;40.620;-8.640;2022-08-18T00:57:49;101461.81;;;15.25;100.00
65983;BME280;52740;40.620;-8.640;2022-08-18T00:59:57;101460.22;;;15.24;100.00
65983;BME280;52740;40.620;-8.640;2022-08-18T01:02:05;101461.72;;;15.18;100.00
65983;BME280;52740;40.620;-8.640;2022-08-18T01:04:19;101462.53;;;15.19;100.00
65983;BME280;52740;40.620;-8.640;2022-08-18T01:06:43;101458.63;;;15.23;100.00
65983;BME280;52740;40.620;-8.640;2022-08-18T01:08:46;101460.22;;;15.24;100.00
65983;BME280;52740;40.620;-8.640;2022-08-18T01:10:47;101454.69;;;15.24;100.00
65983;BME280;52740;40.620;-8.640;2022-08-18T01:12:52;101452.38;;;15.26;100.00
65983;BME280;52740;40.620;-8.640;2022-08-18T01:14:55;101447.25;;;15.28;100.00
65983;BME280;52740;40.620;-8.640;2022-08-18T01:16:56;101451.16;;;15.27;100.00
65983;BME280;52740;40.620;-8.640;2022-08-18T01:19:16;101453.56;;;15.29;100.00
65983;BME280;52740;40.620;-8.640;2022-08-18T01:21:41;101442.50;;;15.25;100.00
65983;BME280;52740;40.620;-8.640;2022-08-18T01:23:51;101451.63;;;15.37;100.00
65983;BME280;52740;40.620;-8.640;2022-08-18T01:25:53;101444.84;;;15.27;100.00
65983;BME280;52740;40.620;-8.640;2022-08-18T01:27:59;101440.53;;;15.26;100.00
65983;BME280;52740;40.620;-8.640;2022-08-18T01:30:08;101436.53;;;15.23;100.00
65983;BME280;52740;40.620;-8.640;2022-08-18T01:32:10;101433.31;;;15.14;100.00
65983;BME280;52740;40.620;-8.640;2022-08-18T01:34:13;101440.78;;;15.14;100.00
65983;BME280;52740;40.620;-8.640;2022-08-18T01:36:18;101445.91;;;15.12;100.00
65983;BME280;52740;40.620;-8.640;2022-08-18T01:38:21;101444.28;;;15.07;100.00
65983;BME280;52740;40.620;-8.640;2022-08-18T01:40:23;101443.13;;;15.08;100.00
65983;BME280;52740;40.620;-8.640;2022-08-18T01:42:23;101440.28;;;15.01;100.00
65983;BME280;52740;40.620;-8.640;2022-08-18T01:44:24;101453.38;;;15.08;100.00
65983;BME280;52740;40.620;-8.640;2022-08-18T01:46:29;101441.97;;;15.09;100.00
65983;BME280;52740;40.620;-8.640;2022-08-18T01:48:31;101448.63;;;15.05;100.00
65983;BME280;52740;40.620;-8.640;2022-08-18T01:50:34;101450.25;;;15.13;100.00
65983;BME280;52740;40.620;-8.640;2022-08-18T01:52:35;101436.53;;;15.23;100.00
65983;BME280;52740;40.620;-8.640;2022-08-18T01:54:36;101436.63;;;15.30;100.00
65983;BME280;52740;40.620;-8.640;2022-08-18T01:56:37;101435.06;;;15.33;100.00
65983;BME280;52740;40.620;-8.640;2022-08-18T01:58:38;101434.66;;;15.31;100.00
65983;BME280;52740;40.620;-8.640;2022-08-18T02:00:39;101440.56;;;15.33;100.00
65983;BME280;52740;40.620;-8.640;2022-08-18T02:02:41;101430.66;;;15.25;100.00
65983;BME280;52740;40.620;-8.640;2022-08-18T02:04:43;101434.19;;;15.22;100.00
65983;BME280;52740;40.620;-8.640;2022-08-18T02:06:44;101434.19;;;15.22;100.00
65983;BME280;52740;40.620;-8.640;2022-08-18T02:08:45;101428.59;;;15.18;100.00
65983;BME280;52740;40.620;-8.640;2022-08-18T02:10:47;101433.28;;;15.11;100.00
65983;BME280;52740;40.620;-8.640;2022-08-18T02:12:47;101429.81;;;15.17;100.00
65983;BME280;52740;40.620;-8.640;2022-08-18T02:14:48;101435.81;;;15.26;100.00
65983;BME280;52740;40.620;-8.640;2022-08-18T02:16:51;101436.47;;;15.13;100.00
65983;BME280;52740;40.620;-8.640;2022-08-18T02:18:51;101433.38;;;15.18;100.00
65983;BME280;52740;40.620;-8.640;2022-08-18T02:20:54;101432.97;;;15.19;100.00
65983;BME280;52740;40.620;-8.640;2022-08-18T02:22:55;101442.09;;;15.27;100.00
65983;BME280;52740;40.620;-8.640;2022-08-18T02:24:58;101446.41;;;15.24;100.00
65983;BME280;52740;40.620;-8.640;2022-08-18T02:26:59;101447.59;;;15.27;100.00
65983;BME280;52740;40.620;-8.640;2022-08-18T02:29:00;101449.13;;;15.17;100.00
65983;BME280;52740;40.620;-8.640;2022-08-18T02:31:06;101462.84;;;15.10;100.00
65983;BME280;52740;40.620;-8.640;2022-08-18T02:33:09;101461.53;;;14.97;100.00
65983;BME280;52740;40.620;-8.640;2022-08-18T02:35:10;101464.53;;;14.81;100.00
65983;BME280;52740;40.620;-8.640;2022-08-18T02:37:11;101470.75;;;14.75;100.00
65983;BME280;52740;40.620;-8.640;2022-08-18T02:39:12;101461.19;;;14.65;100.00
65983;BME280;52740;40.620;-8.640;2022-08-18T02:41:13;101453.22;;;14.57;100.00
65983;BME280;52740;40.620;-8.640;2022-08-18T02:43:15;101453.13;;;14.50;100.00
65983;BME280;52740;40.620;-8.640;2022-08-18T02:45:16;101454.16;;;14.38;100.00
65983;BME280;52740;40.620;-8.640;2022-08-18T02:47:20;101452.22;;;14.38;100.00
65983;BME280;52740;40.620;-8.640;2022-08-18T02:49:21;101459.97;;;14.33;100.00
65983;BME280;52740;40.620;-8.640;2022-08-18T02:51:22;101451.34;;;14.34;100.00
65983;BME280;52740;40.620;-8.640;2022-08-18T02:53:23;101454.81;;;14.31;100.00
65983;BME280;52740;40.620;-8.640;2022-08-18T02:55:24;101456.50;;;14.36;100.00
65983;BME280;52740;40.620;-8.640;2022-08-18T02:57:27;101451.56;;;14.22;100.00
65983;BME280;52740;40.620;-8.640;2022-08-18T02:59:27;101458.66;;;14.23;100.00
65983;BME280;52740;40.620;-8.640;2022-08-18T03:01:30;101454.75;;;14.24;100.00
65983;BME280;52740;40.620;-8.640;2022-08-18T03:03:31;101449.25;;;14.24;100.00
65983;BME280;52740;40.620;-8.640;2022-08-18T03:05:33;101447.28;;;14.25;100.00
65983;BME280;52740;40.620;-8.640;2022-08-18T03:07:34;101448.75;;;14.19;100.00
65983;BME280;52740;40.620;-8.640;2022-08-18T03:09:35;101457.03;;;14.19;100.00
65983;BME280;52740;40.620;-8.640;2022-08-18T03:11:36;101457.75;;;14.12;100.00
65983;BME280;52740;40.620;-8.640;2022-08-18T03:13:37;101450.19;;;14.09;100.00
65983;BME280;52740;40.620;-8.640;2022-08-18T03:15:38;101451.28;;;14.01;100.00
65983;BME280;52740;40.620;-8.640;2022-08-18T03:17:39;101446.34;;;13.87;100.00
65983;BME280;52740;40.620;-8.640;2022-08-18T03:19:39;101448.75;;;13.89;100.00
65983;BME280;52740;40.620;-8.640;2022-08-18T03:21:43;101454.53;;;13.80;100.00
65983;BME280;52740;40.620;-8.640;2022-08-18T03:23:44;101453.19;;;13.71;100.00
65983;BME280;52740;40.620;-8.640;2022-08-18T03:25:46;101447.47;;;13.83;100.00
65983;BME280;52740;40.620;-8.640;2022-08-18T03:27:47;101441.28;;;13.89;100.00
65983;BME280;52740;40.620;-8.640;2022-08-18T03:29:48;101442.16;;;13.97;100.00
65983;BME280;52740;40.620;-8.640;2022-08-18T03:31:50;101439.56;;;14.08;100.00
65983;BME280;52740;40.620;-8.640;2022-08-18T03:33:52;101435.09;;;14.26;100.00
65983;BME280;52740;40.620;-8.640;2022-08-18T03:35:53;101451.19;;;14.24;100.00
65983;BME280;52740;40.620;-8.640;2022-08-18T03:37:57;101454.53;;;14.36;100.00
65983;BME280;52740;40.620;-8.640;2022-08-18T03:39:58;101447.34;;;14.32;100.00
65983;BME280;52740;40.620;-8.640;2022-08-18T03:41:59;101455.81;;;14.42;100.00
65983;BME280;52740;40.620;-8.640;2022-08-18T03:44:00;101449.13;;;14.43;100.00
65983;BME280;52740;40.620;-8.640;2022-08-18T03:46:04;101443.53;;;14.40;100.00
65983;BME280;52740;40.620;-8.640;2022-08-18T03:48:05;101434.00;;;14.34;100.00
65983;BME280;52740;40.620;-8.640;2022-08-18T03:50:06;101444.66;;;14.35;100.00
65983;BME280;52740;40.620;-8.640;2022-08-18T03:52:08;101442.25;;;14.30;100.00
65983;BME280;52740;40.620;-8.640;2022-08-18T03:54:09;101440.97;;;14.24;100.00
65983;BME280;52740;40.620;-8.640;2022-08-18T03:56:15;101439.34;;;14.20;100.00
65983;BME280;52740;40.620;-8.640;2022-08-18T03:58:16;101444.09;;;14.23;100.00
65983;BME280;52740;40.620;-8.640;2022-08-18T04:00:17;101447.97;;;14.18;100.00
65983;BME280;52740;40.620;-8.640;2022-08-18T04:02:18;101441.72;;;14.21;100.00
65983;BME280;52740;40.620;-8.640;2022-08-18T04:04:21;101438.97;;;14.21;100.00
65983;BME280;52740;40.620;-8.640;2022-08-18T04:06:25;101433.03;;;14.19;100.00
65983;BME280;52740;40.620;-8.640;2022-08-18T04:08:26;101439.47;;;14.30;100.00
65983;BME280;52740;40.620;-8.640;2022-08-18T04:10:27;101439.41;;;14.27;100.00
65983;BME280;52740;40.620;-8.640;2022-08-18T04:12:28;101430.00;;;14.28;100.00
65983;BME280;52740;40.620;-8.640;2022-08-18T04:14:29;101430.34;;;14.26;100.00
65983;BME280;52740;40.620;-8.640;2022-08-18T04:16:32;101435.78;;;14.19;100.00
65983;BME280;52740;40.620;-8.640;2022-08-18T04:18:34;101443.22;;;14.15;100.00
65983;BME280;52740;40.620;-8.640;2022-08-18T04:20:35;101428.97;;;14.10;100.00
65983;BME280;52740;40.620;-8.640;2022-08-18T04:22:36;101428.91;;;14.06;100.00
65983;BME280;52740;40.620;-8.640;2022-08-18T04:24:36;101439.66;;;14.15;100.00
65983;BME280;52740;40.620;-8.640;2022-08-18T04:26:41;101427.00;;;14.10;100.00
65983;BME280;52740;40.620;-8.640;2022-08-18T04:28:42;101427.31;;;14.05;100.00
65983;BME280;52740;40.620;-8.640;2022-08-18T04:30:43;101422.56;;;14.02;100.00
65983;BME280;52740;40.620;-8.640;2022-08-18T04:32:44;101424.25;;;14.10;100.00
65983;BME280;52740;40.620;-8.640;2022-08-18T04:34:44;101428.06;;;14.02;100.00
65983;BME280;52740;40.620;-8.640;2022-08-18T04:36:45;101419.38;;;14.00;100.00
65983;BME280;52740;40.620;-8.640;2022-08-18T04:38:46;101423.31;;;13.99;100.00
65983;BME280;52740;40.620;-8.640;2022-08-18T04:40:47;101421.69;;;13.94;100.00
65983;BME280;52740;40.620;-8.640;2022-08-18T04:42:47;101417.28;;;13.90;100.00
65983;BME280;52740;40.620;-8.640;2022-08-18T04:44:48;101420.88;;;13.94;100.00
65983;BME280;52740;40.620;-8.640;2022-08-18T04:46:52;101424.06;;;13.96;100.00
65983;BME280;52740;40.620;-8.640;2022-08-18T04:48:56;101425.50;;;13.86;100.00
65983;BME280;52740;40.620;-8.640;2022-08-18T04:51:13;101421.56;;;13.87;100.00
65983;BME280;52740;40.620;-8.640;2022-08-18T04:53:14;101423.91;;;13.85;100.00
65983;BME280;52740;40.620;-8.640;2022-08-18T04:55:33;101422.41;;;13.91;100.00
65983;BME280;52740;40.620;-8.640;2022-08-18T04:57:34;101418.03;;;13.87;100.00
65983;BME280;52740;40.620;-8.640;2022-08-18T04:59:35;101419.94;;;13.83;100.00
65983;BME280;52740;40.620;-8.640;2022-08-18T05:01:41;101421.16;;;13.85;100.00
65983;BME280;52740;40.620;-8.640;2022-08-18T05:03:45;101412.75;;;13.75;100.00
65983;BME280;52740;40.620;-8.640;2022-08-18T05:05:45;101424.59;;;13.79;100.00
65983;BME280;52740;40.620;-8.640;2022-08-18T05:07:46;101426.94;;;13.77;100.00
65983;BME280;52740;40.620;-8.640;2022-08-18T05:09:47;101421.00;;;13.75;100.00
65983;BME280;52740;40.620;-8.640;2022-08-18T05:11:48;101417.00;;;13.69;100.00
65983;BME280;52740;40.620;-8.640;2022-08-18T05:13:50;101434.72;;;13.71;100.00
65983;BME280;52740;40.620;-8.640;2022-08-18T05:15:55;101429.13;;;13.64;100.00
65983;BME280;52740;40.620;-8.640;2022-08-18T05:17:56;101435.38;;;13.65;100.00
65983;BME280;52740;40.620;-8.640;2022-08-18T05:19:58;101433.78;;;13.60;100.00
65983;BME280;52740;40.620;-8.640;2022-08-18T05:22:01;101433.34;;;13.58;100.00
65983;BME280;52740;40.620;-8.640;2022-08-18T05:24:03;101432.28;;;13.66;100.00
65983;BME280;52740;40.620;-8.640;2022-08-18T05:26:04;101426.69;;;13.59;100.00
65983;BME280;52740;40.620;-8.640;2022-08-18T05:28:05;101434.97;;;13.63;100.00
65983;BME280;52740;40.620;-8.640;2022-08-18T05:30:07;101426.25;;;13.57;100.00
65983;BME280;52740;40.620;-8.640;2022-08-18T05:32:08;101439.09;;;13.49;100.00
65983;BME280;52740;40.620;-8.640;2022-08-18T05:34:09;101442.16;;;13.44;100.00
65983;BME280;52740;40.620;-8.640;2022-08-18T05:40:33;101439.34;;;13.41;100.00
65983;BME280;52740;40.620;-8.640;2022-08-18T05:42:37;101444.50;;;13.42;100.00
65983;BME280;52740;40.620;-8.640;2022-08-18T05:44:43;101442.97;;;13.45;100.00
65983;BME280;52740;40.620;-8.640;2022-08-18T05:46:54;101439.00;;;13.42;100.00
65983;BME280;52740;40.620;-8.640;2022-08-18T05:48:56;101447.66;;;13.44;100.00
65983;BME280;52740;40.620;-8.640;2022-08-18T05:50:57;101448.91;;;13.47;100.00
65983;BME280;52740;40.620;-8.640;2022-08-18T05:53:13;101447.25;;;13.42;100.00
65983;BME280;52740;40.620;-8.640;2022-08-18T05:55:22;101456.38;;;13.46;100.00
65983;BME280;52740;40.620;-8.640;2022-08-18T05:57:52;101456.78;;;13.48;100.00
65983;BME280;52740;40.620;-8.640;2022-08-18T05:59:54;101447.63;;;13.41;100.00
65983;BME280;52740;40.620;-8.640;2022-08-18T06:02:31;101461.19;;;13.53;100.00
65983;BME280;52740;40.620;-8.640;2022-08-18T06:04:52;101459.56;;;13.52;100.00
65983;BME280;52740;40.620;-8.640;2022-08-18T06:06:55;101454.88;;;13.52;100.00
65983;BME280;52740;40.620;-8.640;2022-08-18T06:09:08;101460.81;;;13.54;100.00
65983;BME280;52740;40.620;-8.640;2022-08-18T06:11:10;101468.22;;;13.50;100.00
65983;BME280;52740;40.620;-8.640;2022-08-18T06:13:11;101463.56;;;13.54;100.00
65983;BME280;52740;40.620;-8.640;2022-08-18T06:24:10;101476.38;;;13.70;100.00
65983;BME280;52740;40.620;-8.640;2022-08-18T06:31:38;101498.81;;;13.94;100.00
65983;BME280;52740;40.620;-8.640;2022-08-18T06:36:11;101492.16;;;14.25;100.00
65983;BME280;52740;40.620;-8.640;2022-08-18T06:40:35;101496.88;;;14.51;100.00
65983;BME280;52740;40.620;-8.640;2022-08-18T06:42:36;101505.34;;;14.69;100.00
65983;BME280;52740;40.620;-8.640;2022-08-18T06:44:48;101505.59;;;14.90;100.00
65983;BME280;52740;40.620;-8.640;2022-08-18T06:49:16;101509.06;;;15.20;100.00
65983;BME280;52740;40.620;-8.640;2022-08-18T06:51:23;101517.88;;;15.33;100.00
65983;BME280;52740;40.620;-8.640;2022-08-18T06:54:02;101520.53;;;15.63;100.00
65983;BME280;52740;40.620;-8.640;2022-08-18T06:56:24;101509.75;;;15.98;100.00
65983;BME280;52740;40.620;-8.640;2022-08-18T06:58:28;101511.53;;;16.28;100.00
65983;BME280;52740;40.620;-8.640;2022-08-18T07:00:33;101506.25;;;16.81;100.00
65983;BME280;52740;40.620;-8.640;2022-08-18T07:02:49;101518.25;;;17.48;100.00
65983;BME280;52740;40.620;-8.640;2022-08-18T07:05:26;101506.25;;;18.58;100.00
65983;BME280;52740;40.620;-8.640;2022-08-18T07:07:35;101507.47;;;19.26;100.00
65983;BME280;52740;40.620;-8.640;2022-08-18T07:09:37;101505.00;;;20.31;100.00
65983;BME280;52740;40.620;-8.640;2022-08-18T07:11:38;101509.16;;;20.80;100.00
65983;BME280;52740;40.620;-8.640;2022-08-18T07:13:44;101513.56;;;21.62;100.00
65983;BME280;52740;40.620;-8.640;2022-08-18T07:15:46;101517.75;;;21.96;100.00
65983;BME280;52740;40.620;-8.640;2022-08-18T07:17:48;101506.44;;;22.86;100.00
65983;BME280;52740;40.620;-8.640;2022-08-18T07:19:57;101514.75;;;23.90;96.64
65983;BME280;52740;40.620;-8.640;2022-08-18T07:24:25;101517.59;;;24.48;91.94
65983;BME280;52740;40.620;-8.640;2022-08-18T07:26:27;101506.69;;;24.66;85.20
65983;BME280;52740;40.620;-8.640;2022-08-18T07:28:31;101511.00;;;24.96;82.82
65983;BME280;52740;40.620;-8.640;2022-08-18T07:30:36;101513.56;;;25.16;80.12
65983;BME280;52740;40.620;-8.640;2022-08-18T07:32:53;101509.00;;;24.96;81.78
65983;BME280;52740;40.620;-8.640;2022-08-18T07:34:57;101515.47;;;24.23;87.60
65983;BME280;52740;40.620;-8.640;2022-08-18T07:39:50;101515.53;;;24.36;87.70
65983;BME280;52740;40.620;-8.640;2022-08-18T07:46:58;101510.88;;;24.58;84.17
65983;BME280;52740;40.620;-8.640;2022-08-18T07:49:02;101513.03;;;25.21;78.26
65983;BME280;52740;40.620;-8.640;2022-08-18T07:51:22;101512.66;;;26.38;71.31
65983;BME280;52740;40.620;-8.640;2022-08-18T07:53:42;101514.91;;;25.36;72.80
65983;BME280;52740;40.620;-8.640;2022-08-18T07:55:50;101509.66;;;24.59;78.61
65983;BME280;52740;40.620;-8.640;2022-08-18T07:58:05;101506.22;;;24.26;81.13
65983;BME280;52740;40.620;-8.640;2022-08-18T08:00:37;101505.16;;;25.28;78.11
65983;BME280;52740;40.620;-8.640;2022-08-18T08:02:58;101501.91;;;25.42;73.35
65983;BME280;52740;40.620;-8.640;2022-08-18T08:08:00;101512.41;;;25.89;68.60
65983;BME280;52740;40.620;-8.640;2022-08-18T08:14:36;101519.44;;;25.93;67.93
65983;BME280;52740;40.620;-8.640;2022-08-18T08:21:18;101524.50;;;26.76;64.85
65983;BME280;52740;40.620;-8.640;2022-08-18T08:23:28;101523.94;;;26.69;62.15
65983;BME280;52740;40.620;-8.640;2022-08-18T08:29:58;101531.47;;;25.81;68.94
65983;BME280;52740;40.620;-8.640;2022-08-18T08:32:05;101532.22;;;25.22;69.77
65983;BME280;52740;40.620;-8.640;2022-08-18T08:34:13;101531.91;;;25.92;66.78
65983;BME280;52740;40.620;-8.640;2022-08-18T08:36:25;101542.56;;;25.97;68.14
65983;BME280;52740;40.620;-8.640;2022-08-18T08:40:59;101534.47;;;26.99;62.79
65983;BME280;52740;40.620;-8.640;2022-08-18T08:43:10;101535.34;;;26.65;63.37
65983;BME280;52740;40.620;-8.640;2022-08-18T08:45:22;101537.09;;;27.24;61.60
65983;BME280;52740;40.620;-8.640;2022-08-18T08:49:39;101536.03;;;26.00;70.13
65983;BME280;52740;40.620;-8.640;2022-08-18T08:51:45;101544.75;;;25.68;69.83
65983;BME280;52740;40.620;-8.640;2022-08-18T08:53:53;101537.44;;;25.83;69.70
65983;BME280;52740;40.620;-8.640;2022-08-18T08:56:11;101530.59;;;25.72;68.73
65983;BME280;52740;40.620;-8.640;2022-08-18T08:58:23;101540.94;;;26.65;65.89
65983;BME280;52740;40.620;-8.640;2022-08-18T09:00:26;101544.59;;;26.75;64.90
65983;BME280;52740;40.620;-8.640;2022-08-18T09:07:14;101555.50;;;27.25;59.85
65983;BME280;52740;40.620;-8.640;2022-08-18T09:23:21;101559.75;;;26.99;59.97
65983;BME280;52740;40.620;-8.640;2022-08-18T09:25:43;101560.88;;;27.32;58.32
65983;BME280;52740;40.620;-8.640;2022-08-18T09:27:45;101557.69;;;27.52;56.74
65983;BME280;52740;40.620;-8.640;2022-08-18T09:29:52;101561.97;;;26.82;61.79
65983;BME280;52740;40.620;-8.640;2022-08-18T09:34:32;101565.78;;;26.67;61.32
65983;BME280;52740;40.620;-8.640;2022-08-18T09:44:10;101549.84;;;28.69;51.92
65983;BME280;52740;40.620;-8.640;2022-08-18T09:48:43;101552.75;;;27.84;55.28
65983;BME280;52740;40.620;-8.640;2022-08-18T09:52:56;101553.88;;;28.04;55.39
65983;BME280;52740;40.620;-8.640;2022-08-18T09:55:01;101554.69;;;28.78;51.99
65983;BME280;52740;40.620;-8.640;2022-08-18T09:57:18;101553.06;;;29.79;50.14
65983;BME280;52740;40.620;-8.640;2022-08-18T10:01:35;101563.38;;;29.07;50.16
65983;BME280;52740;40.620;-8.640;2022-08-18T10:03:37;101561.66;;;29.51;48.93
65983;BME280;52740;40.620;-8.640;2022-08-18T10:05:38;101560.81;;;28.49;50.77
65983;BME280;52740;40.620;-8.640;2022-08-18T10:07:53;101564.81;;;29.02;51.16
65983;BME280;52740;40.620;-8.640;2022-08-18T10:10:11;101560.78;;;29.36;49.99
65983;BME280;52740;40.620;-8.640;2022-08-18T10:12:26;101553.63;;;29.92;48.72
65983;BME280;52740;40.620;-8.640;2022-08-18T10:26:37;101549.97;;;28.65;49.34
65983;BME280;52740;40.620;-8.640;2022-08-18T10:31:12;101556.06;;;29.42;45.84
65983;BME280;52740;40.620;-8.640;2022-08-18T10:35:56;101562.81;;;29.36;47.05
65983;BME280;52740;40.620;-8.640;2022-08-18T10:37:57;101550.34;;;29.61;46.47
65983;BME280;52740;40.620;-8.640;2022-08-18T10:42:28;101558.63;;;29.64;46.20
65983;BME280;52740;40.620;-8.640;2022-08-18T10:44:39;101558.28;;;29.95;45.15
65983;BME280;52740;40.620;-8.640;2022-08-18T10:46:42;101558.06;;;29.51;46.69
65983;BME280;52740;40.620;-8.640;2022-08-18T10:48:43;101555.16;;;29.36;47.93
65983;BME280;52740;40.620;-8.640;2022-08-18T10:51:15;101558.56;;;29.40;48.85
65983;BME280;52740;40.620;-8.640;2022-08-18T10:53:58;101553.75;;;29.65;47.25
65983;BME280;52740;40.620;-8.640;2022-08-18T10:56:16;101549.06;;;29.62;48.08
65983;BME280;52740;40.620;-8.640;2022-08-18T11:01:03;101551.63;;;30.89;43.98
65983;BME280;52740;40.620;-8.640;2022-08-18T11:03:19;101560.34;;;29.94;45.11
65983;BME280;52740;40.620;-8.640;2022-08-18T11:05:25;101551.53;;;30.16;44.80
65983;BME280;52740;40.620;-8.640;2022-08-18T11:07:28;101558.09;;;31.19;43.19
65983;BME280;52740;40.620;-8.640;2022-08-18T11:09:30;101555.66;;;30.68;42.33
65983;BME280;52740;40.620;-8.640;2022-08-18T11:11:34;101545.41;;;30.85;42.26
65983;BME280;52740;40.620;-8.640;2022-08-18T11:13:44;101544.25;;;30.63;43.56
65983;BME280;52740;40.620;-8.640;2022-08-18T11:17:55;101538.81;;;29.40;45.54
65983;BME280;52740;40.620;-8.640;2022-08-18T11:20:05;101537.78;;;28.78;46.88
65983;BME280;52740;40.620;-8.640;2022-08-18T11:22:24;101540.16;;;28.61;47.75
65983;BME280;52740;40.620;-8.640;2022-08-18T11:24:27;101538.72;;;29.26;47.08
65983;BME280;52740;40.620;-8.640;2022-08-18T11:26:33;101547.81;;;29.21;46.18
65983;BME280;52740;40.620;-8.640;2022-08-18T11:28:35;101534.66;;;28.76;47.95
65983;BME280;52740;40.620;-8.640;2022-08-18T11:30:40;101537.31;;;29.30;47.40
65983;BME280;52740;40.620;-8.640;2022-08-18T11:32:44;101534.03;;;29.55;45.99
65983;BME280;52740;40.620;-8.640;2022-08-18T11:34:52;101523.38;;;28.57;47.34
65983;BME280;52740;40.620;-8.640;2022-08-18T11:37:02;101530.41;;;28.80;47.97
65983;BME280;52740;40.620;-8.640;2022-08-18T11:39:08;101532.56;;;29.27;48.22
65983;BME280;52740;40.620;-8.640;2022-08-18T11:41:18;101531.66;;;29.87;46.81
65983;BME280;52740;40.620;-8.640;2022-08-18T11:43:28;101534.72;;;29.98;46.43
65983;BME280;52740;40.620;-8.640;2022-08-18T11:50:26;101533.72;;;28.70;49.20
65983;BME280;52740;40.620;-8.640;2022-08-18T11:52:28;101529.31;;;27.96;51.34
65983;BME280;52740;40.620;-8.640;2022-08-18T11:54:39;101530.13;;;27.47;54.03
65983;BME280;52740;40.620;-8.640;2022-08-18T11:56:42;101530.84;;;28.88;50.26
65983;BME280;52740;40.620;-8.640;2022-08-18T12:00:56;101533.75;;;28.15;51.43
65983;BME280;52740;40.620;-8.640;2022-08-18T12:03:05;101525.38;;;28.84;51.28
65983;BME280;52740;40.620;-8.640;2022-08-18T12:05:07;101533.41;;;28.13;50.14
65983;BME280;52740;40.620;-8.640;2022-08-18T12:07:15;101529.81;;;28.49;49.69
65983;BME280;52740;40.620;-8.640;2022-08-18T12:11:24;101532.44;;;27.79;51.04
65983;BME280;52740;40.620;-8.640;2022-08-18T12:13:25;101521.72;;;29.02;48.28
65983;BME280;52740;40.620;-8.640;2022-08-18T12:15:35;101513.81;;;29.57;47.22
65983;BME280;52740;40.620;-8.640;2022-08-18T12:17:35;101526.31;;;29.32;46.74
65983;BME280;52740;40.620;-8.640;2022-08-18T12:19:36;101515.53;;;29.54;46.01
65983;BME280;52740;40.620;-8.640;2022-08-18T12:21:45;101530.75;;;29.57;46.43
65983;BME280;52740;40.620;-8.640;2022-08-18T12:23:48;101521.63;;;30.24;46.19
65983;BME280;52740;40.620;-8.640;2022-08-18T12:25:49;101529.75;;;29.93;46.87
65983;BME280;52740;40.620;-8.640;2022-08-18T12:27:50;101529.19;;;28.72;49.25
65983;BME280;52740;40.620;-8.640;2022-08-18T12:29:52;101526.13;;;27.17;53.77
65983;BME280;52740;40.620;-8.640;2022-08-18T12:31:54;101526.03;;;26.99;55.26
65983;BME280;52740;40.620;-8.640;2022-08-18T12:33:54;101521.28;;;27.58;54.42
65983;BME280;52740;40.620;-8.640;2022-08-18T12:35:56;101525.56;;;27.31;54.62
65983;BME280;52740;40.620;-8.640;2022-08-18T12:37:56;101522.28;;;28.09;51.79
65983;BME280;52740;40.620;-8.640;2022-08-18T12:39:58;101514.00;;;28.42;50.33
65983;BME280;52740;40.620;-8.640;2022-08-18T12:41:59;101523.97;;;28.80;50.44
65983;BME280;52740;40.620;-8.640;2022-08-18T12:44:01;101523.97;;;28.89;50.25
65983;BME280;52740;40.620;-8.640;2022-08-18T12:46:02;101543.00;;;27.57;53.04